createdAt,value
2022-12-16T00:04:51.700Z,94197.81
2022-12-16T00:15:04.773Z,94191.03
2022-12-16T00:25:17.709Z,94183.19
2022-12-16T00:35:30.768Z,94177.31
2022-12-16T00:45:43.820Z,94228.19
2022-12-16T00:55:56.769Z,94202.00
2022-12-16T01:06:09.745Z,94202.94
2022-12-16T01:16:22.815Z,94221.81
2022-12-16T01:26:35.781Z,94169.13
2022-12-16T01:36:48.779Z,94146.06
2022-12-16T01:47:03.771Z,94156.72
2022-12-16T01:57:20.801Z,94124.81
2022-12-16T02:07:33.797Z,94157.50
2022-12-16T02:18:06.816Z,94142.03
2022-12-16T02:28:33.773Z,94136.06
2022-12-16T02:39:15.819Z,94127.16
2022-12-16T02:49:28.824Z,94140.56
2022-12-16T03:00:14.829Z,94127.88
2022-12-16T03:10:36.808Z,94133.09
2022-12-16T03:21:01.816Z,94105.06
2022-12-16T03:31:35.837Z,94099.56
2022-12-16T03:41:50.860Z,94068.28
2022-12-16T03:52:03.865Z,94028.22
2022-12-16T04:02:17.058Z,94012.16
2022-12-16T04:12:48.833Z,94008.53
2022-12-16T04:23:19.893Z,94003.25
2022-12-16T04:33:50.857Z,94019.09
2022-12-16T04:44:21.889Z,94025.91
2022-12-16T04:54:52.862Z,94030.66
2022-12-16T05:05:23.900Z,94036.94
2022-12-16T05:15:53.932Z,94035.72
2022-12-16T05:26:24.941Z,94040.37
2022-12-16T05:36:55.892Z,94002.22
2022-12-16T05:47:26.983Z,94015.13
2022-12-16T05:57:57.910Z,93976.16
2022-12-16T06:08:28.943Z,94003.66
2022-12-16T06:18:59.912Z,94017.56
2022-12-16T06:29:30.952Z,94005.16
2022-12-16T06:40:01.935Z,94004.16
2022-12-16T06:50:33.001Z,94016.34
2022-12-16T07:01:03.995Z,94015.03
2022-12-16T07:11:34.939Z,94041.53
2022-12-16T07:22:11.991Z,94018.19
2022-12-16T07:32:42.959Z,94014.28
2022-12-16T07:43:21.023Z,94017.28
2022-12-16T07:53:52.944Z,94000.31
2022-12-16T08:04:24.011Z,94000.47
2022-12-16T08:14:54.980Z,94019.16
2022-12-16T08:25:27.006Z,94023.59
2022-12-16T08:35:58.009Z,94046.69
2022-12-16T08:46:28.143Z,94032.75
2022-12-16T08:57:00.012Z,94060.97
2022-12-16T09:07:39.049Z,94052.12
2022-12-16T09:18:10.996Z,94092.13
2022-12-16T09:28:42.064Z,94084.03
2022-12-16T09:39:13.084Z,94095.66
2022-12-16T09:50:05.088Z,94105.69
2022-12-16T10:00:47.032Z,94102.72
2022-12-16T10:11:18.066Z,94091.19
2022-12-16T10:22:01.064Z,94084.78
2022-12-16T10:32:56.117Z,94064.16
2022-12-16T10:43:40.044Z,94067.47
2022-12-16T10:54:13.094Z,94092.72
2022-12-16T11:04:55.788Z,94039.78
2022-12-16T11:15:29.837Z,94020.34
2022-12-16T11:26:01.111Z,94014.81
2022-12-16T11:36:47.153Z,94031.34
2022-12-16T11:47:17.123Z,94001.81
2022-12-16T11:57:52.146Z,94056.97
2022-12-16T12:08:33.093Z,94063.28
2022-12-16T12:19:17.143Z,94045.81
2022-12-16T12:30:16.372Z,94097.22
2022-12-16T12:40:51.128Z,94141.19
2022-12-16T12:51:39.173Z,94165.59
2022-12-16T13:02:12.265Z,94170.50
2022-12-16T13:12:52.157Z,94169.53
2022-12-16T13:23:54.177Z,94205.56
2022-12-16T13:34:32.176Z,94253.47
2022-12-16T13:45:09.189Z,94264.88
2022-12-16T13:55:45.194Z,94293.81
2022-12-16T14:06:17.214Z,94338.09
2022-12-16T14:17:04.257Z,94349.59
2022-12-16T14:27:44.218Z,94396.03
2022-12-16T14:38:15.215Z,94415.94
2022-12-16T14:48:58.246Z,94435.66
2022-12-16T14:59:40.208Z,94477.75
2022-12-16T15:10:15.275Z,94507.03
2022-12-16T15:20:56.214Z,94513.34
2022-12-16T15:31:27.335Z,94581.81
2022-12-16T15:42:00.254Z,94599.59
2022-12-16T15:52:56.269Z,94642.97
2022-12-16T16:03:27.350Z,94631.19
2022-12-16T16:14:05.011Z,94655.97
2022-12-16T16:24:38.293Z,94651.44
2022-12-16T16:35:09.283Z,94676.69
2022-12-16T16:45:40.267Z,94695.38
2022-12-16T16:56:15.165Z,94725.22
2022-12-16T17:06:51.272Z,94728.97
2022-12-16T17:17:22.313Z,94740.94
2022-12-16T17:27:52.423Z,94798.50
2022-12-16T17:38:23.338Z,94831.06
2022-12-16T17:48:54.319Z,94875.62
2022-12-16T17:59:25.321Z,94905.88
2022-12-16T18:09:56.317Z,94881.22
2022-12-16T18:20:34.356Z,94875.47
2022-12-16T18:31:05.400Z,94868.25
2022-12-16T18:41:45.365Z,94903.50
2022-12-16T18:52:16.359Z,94904.50
2022-12-16T19:02:48.516Z,94893.16
2022-12-16T19:13:24.364Z,94910.69
2022-12-16T19:24:02.377Z,94928.97
2022-12-16T19:34:33.380Z,94942.41
2022-12-16T19:45:04.441Z,94973.28
2022-12-16T19:55:35.405Z,94982.62
2022-12-16T20:06:06.409Z,94985.28
2022-12-16T20:16:44.382Z,95014.59
2022-12-16T20:27:15.450Z,95004.94
2022-12-16T20:37:46.429Z,95023.44
2022-12-16T20:48:19.427Z,95049.44
2022-12-16T20:58:49.424Z,95045.31
2022-12-16T21:09:20.413Z,95091.03
2022-12-16T21:19:51.464Z,95114.94
2022-12-16T21:30:22.416Z,95101.72
2022-12-16T21:40:53.452Z,95138.19
2022-12-16T21:51:27.436Z,95088.12
2022-12-16T22:01:58.565Z,95075.72
2022-12-16T22:12:29.453Z,95104.25
2022-12-16T22:23:07.516Z,95103.56
2022-12-16T22:33:39.484Z,95091.31
2022-12-16T22:44:11.494Z,95116.97
2022-12-16T22:54:42.505Z,95130.31
2022-12-16T23:05:14.525Z,95129.87
2022-12-16T23:15:45.555Z,95102.28
2022-12-16T23:26:24.545Z,95114.38
2022-12-16T23:36:55.503Z,95120.12
2022-12-16T23:47:27.564Z,95119.38
2022-12-16T23:57:58.488Z,95137.09
